Time;durP1;ratioP1;P1;durP2;ratioP2;P2;SDS_P1;SDS_P2;PMS_P1;PMS_P2;Temp;Humidity;BMP_temperature;BMP_pressure;BME280_temperature;BME280_humidity;BME280_pressure;Samples;Min_cycle;Max_cycle;Signal;HPM_P1;HPM_P2
2021/08/24 00:00:19;;;;;;;5.93;4.10;;;17.30;99.90;;;;;;5011335;28;20022;-76
2021/08/24 00:02:44;;;;;;;6.10;4.53;;;17.20;99.90;;;;;;5006765;28;20499;-77
2021/08/24 00:05:12;;;;;;;5.45;4.20;;;17.20;99.90;;;;;;4986532;28;20026;-76
2021/08/24 00:07:37;;;;;;;6.68;4.30;;;17.20;99.90;;;;;;5011178;28;20037;-78
2021/08/24 00:10:06;;;;;;;5.55;4.30;;;17.20;99.90;;;;;;5011259;28;20037;-77
2021/08/24 00:12:32;;;;;;;6.53;4.40;;;17.10;99.90;;;;;;5011127;28;20052;-75
2021/08/24 00:14:58;;;;;;;5.68;4.20;;;17.00;99.90;;;;;;4994768;28;20037;-73
2021/08/24 00:17:23;;;;;;;6.15;4.60;;;17.00;99.90;;;;;;5000606;28;20030;-76
2021/08/24 00:19:49;;;;;;;7.32;4.45;;;17.00;99.90;;;;;;5012458;28;20040;-75
2021/08/24 00:22:14;;;;;;;7.03;4.90;;;17.00;99.90;;;;;;4992044;28;20116;-75
2021/08/24 00:24:40;;;;;;;7.75;4.72;;;20.50;99.90;;;;;;4995628;28;20484;-76
2021/08/24 00:27:06;;;;;;;8.23;4.80;;;17.00;99.90;;;;;;5002871;28;20030;-76
2021/08/24 00:29:31;;;;;;;8.43;5.68;;;17.00;99.90;;;;;;5001105;28;20735;-76
2021/08/24 00:31:57;;;;;;;6.85;4.80;;;16.80;99.90;;;;;;4997288;28;20076;-76
2021/08/24 00:34:22;;;;;;;8.63;5.43;;;16.90;99.90;;;;;;5013585;28;20026;-75
2021/08/24 00:36:48;;;;;;;7.53;5.35;;;16.80;99.90;;;;;;5012991;28;20018;-76
2021/08/24 00:39:13;;;;;;;9.95;5.60;;;18.20;99.90;;;;;;5011740;28;20162;-75
2021/08/24 00:41:39;;;;;;;7.75;4.55;;;16.70;99.90;;;;;;5001162;28;20026;-77
2021/08/24 00:44:06;;;;;;;6.57;4.80;;;16.80;99.90;;;;;;5014563;28;20080;-75
2021/08/24 00:46:45;;;;;;;8.27;5.35;;;17.50;99.90;;;;;;5001902;28;20511;-75
2021/08/24 00:49:23;;;;;;;6.95;4.72;;;16.60;99.90;;;;;;4993451;28;20045;-74
2021/08/24 00:51:56;;;;;;;5.97;4.43;;;16.60;99.90;;;;;;4995765;28;20034;-75
2021/08/24 00:54:25;;;;;;;7.95;4.82;;;16.60;99.90;;;;;;5014078;28;20026;-77
2021/08/24 00:56:55;;;;;;;6.78;4.97;;;16.60;99.90;;;;;;5008144;28;20018;-74
2021/08/24 00:59:21;;;;;;;6.97;5.00;;;16.60;99.90;;;;;;5013885;28;20480;-75
2021/08/24 01:01:49;;;;;;;9.65;5.65;;;16.60;99.90;;;;;;5013781;28;20582;-75
2021/08/24 01:04:16;;;;;;;7.65;5.25;;;16.50;99.90;;;;;;4997227;28;20428;-78
2021/08/24 01:06:53;;;;;;;9.00;5.40;;;16.50;99.90;;;;;;4999355;28;20026;-74
2021/08/24 01:09:35;;;;;;;7.93;5.70;;;16.50;99.90;;;;;;4996290;28;20022;-76
2021/08/24 01:12:13;;;;;;;10.07;5.55;;;16.40;99.90;;;;;;5013936;28;20024;-75
2021/08/24 01:15:04;;;;;;;7.47;5.22;;;16.40;99.90;;;;;;4992495;28;20496;-76
2021/08/24 01:17:48;;;;;;;9.50;5.95;;;16.40;99.90;;;;;;5009785;28;20041;-77
2021/08/24 01:20:37;;;;;;;7.38;5.28;;;16.40;99.90;;;;;;5013769;28;20105;-77
2021/08/24 01:23:11;;;;;;;8.05;5.22;;;16.40;99.90;;;;;;5007945;28;20021;-77
2021/08/24 01:25:49;;;;;;;8.70;5.13;;;16.30;99.90;;;;;;5014176;28;20026;-76
2021/08/24 01:28:33;;;;;;;7.97;5.43;;;16.20;99.90;;;;;;5000073;28;20033;-77
2021/08/24 01:31:34;;;;;;;7.47;5.00;;;16.20;99.90;;;;;;5007309;28;20373;-75
2021/08/24 01:34:29;;;;;;;7.80;4.90;;;16.20;99.90;;;;;;4968021;28;20037;-77
2021/08/24 01:37:11;;;;;;;6.40;5.18;;;16.10;99.90;;;;;;5011883;28;20112;-75
2021/08/24 01:39:43;;;;;;;7.80;5.25;;;16.10;99.90;;;;;;4996066;28;20022;-76
2021/08/24 01:42:19;;;;;;;5.93;4.53;;;16.10;99.90;;;;;;4999836;28;20026;-76
2021/08/24 01:44:44;;;;;;;17.60;6.97;;;16.10;99.90;;;;;;4997937;28;20022;-77
2021/08/24 01:47:24;;;;;;;7.57;5.32;;;16.10;99.90;;;;;;5013303;28;20399;-76
2021/08/24 01:50:05;;;;;;;7.32;5.13;;;16.10;99.90;;;;;;5012964;28;20022;-74
2021/08/24 01:52:35;;;;;;;8.52;5.18;;;16.10;99.90;;;;;;5001704;28;20041;-75
2021/08/24 01:55:09;;;;;;;7.32;4.75;;;16.10;99.90;;;;;;4994928;28;20568;-76
2021/08/24 01:57:49;;;;;;;6.32;4.95;;;16.10;99.90;;;;;;4995038;28;20045;-75
2021/08/24 02:00:16;;;;;;;8.45;5.40;;;16.00;99.90;;;;;;5008190;28;20031;-77
2021/08/24 02:02:47;;;;;;;7.97;5.47;;;16.00;99.90;;;;;;4996306;28;20099;-77
2021/08/24 02:05:18;;;;;;;7.90;5.32;;;16.00;99.90;;;;;;4995884;28;20099;-78
2021/08/24 02:07:46;;;;;;;9.00;4.93;;;15.90;99.90;;;;;;5000256;28;20026;-74
2021/08/24 02:10:20;;;;;;;6.35;4.45;;;15.90;99.90;;;;;;4994589;28;20093;-77
2021/08/24 02:12:50;;;;;;;6.88;4.90;;;15.90;99.90;;;;;;4994857;28;20492;-74
2021/08/24 02:15:18;;;;;;;5.75;4.75;;;15.80;99.90;;;;;;5013575;28;20026;-75
2021/08/24 02:17:47;;;;;;;9.85;5.20;;;15.80;99.90;;;;;;5009604;28;20546;-76
2021/08/24 02:20:24;;;;;;;6.70;4.65;;;15.70;99.90;;;;;;4995436;28;20036;-75
2021/08/24 02:22:59;;;;;;;7.63;4.68;;;15.70;99.90;;;;;;4998405;28;20060;-75
2021/08/24 02:25:31;;;;;;;7.05;4.57;;;15.70;99.90;;;;;;5013889;28;20026;-77
2021/08/24 02:28:20;;;;;;;5.93;4.20;;;15.70;99.90;;;;;;4991279;28;20107;-76
2021/08/24 02:30:54;;;;;;;5.60;4.20;;;15.70;99.90;;;;;;4988265;28;20054;-73
2021/08/24 02:33:22;;;;;;;7.93;4.55;;;15.70;99.90;;;;;;5011113;28;20062;-77
2021/08/24 02:35:56;;;;;;;8.35;4.90;;;15.70;99.90;;;;;;5012107;28;20022;-75
2021/08/24 02:38:25;;;;;;;10.55;5.43;;;15.60;99.90;;;;;;5017188;28;20383;-76
2021/08/24 02:41:06;;;;;;;6.38;4.25;;;15.60;99.90;;;;;;4994929;28;20104;-72
2021/08/24 02:43:53;;;;;;;7.45;4.80;;;15.60;99.90;;;;;;5009512;28;20101;-75
2021/08/24 02:46:29;;;;;;;7.22;4.90;;;15.60;99.90;;;;;;5011893;28;20036;-76
2021/08/24 02:49:07;;;;;;;6.30;4.70;;;15.60;99.90;;;;;;5015157;28;20030;-76
2021/08/24 02:51:33;;;;;;;7.43;4.63;;;15.60;99.90;;;;;;5011825;28;20101;-75
2021/08/24 02:54:39;;;;;;;6.38;4.50;;;15.60;99.90;;;;;;5014580;28;20475;-75
2021/08/24 02:57:06;;;;;;;9.60;4.80;;;15.60;99.90;;;;;;4951538;29;20031;-75
2021/08/24 02:59:32;;;;;;;7.40;4.95;;;15.60;99.90;;;;;;5007282;28;20443;-76
2021/08/24 03:01:58;;;;;;;7.30;5.00;;;15.60;99.90;;;;;;5010417;28;20028;-77
2021/08/24 03:04:25;;;;;;;8.38;4.95;;;15.50;99.90;;;;;;4994447;28;20619;-74
2021/08/24 03:06:59;;;;;;;9.88;6.00;;;15.90;99.90;;;;;;5011899;28;20018;-76
2021/08/24 03:09:28;;;;;;;7.85;5.43;;;15.60;99.90;;;;;;4988724;28;20060;-77
2021/08/24 03:12:29;;;;;;;10.45;5.88;;;15.50;99.90;;;;;;4995433;28;20038;-77
2021/08/24 03:15:13;;;;;;;8.93;4.80;;;15.50;99.90;;;;;;4975899;28;20030;-77
2021/08/24 03:18:03;;;;;;;6.13;4.43;;;15.50;99.90;;;;;;4988963;28;20534;-76
2021/08/24 03:20:37;;;;;;;7.70;4.90;;;15.50;99.90;;;;;;4994252;28;20029;-76
2021/08/24 03:23:05;;;;;;;8.43;5.20;;;15.40;99.90;;;;;;4993517;28;20034;-76
2021/08/24 03:25:32;;;;;;;7.95;5.18;;;15.40;99.90;;;;;;4999492;28;20056;-77
2021/08/24 03:27:57;;;;;;;10.23;6.22;;;15.40;99.90;;;;;;5017523;28;20038;-75
2021/08/24 03:30:23;;;;;;;8.90;6.03;;;15.30;99.90;;;;;;4989845;28;20772;-74
2021/08/24 03:32:51;;;;;;;8.50;5.38;;;15.30;99.90;;;;;;5012656;28;20029;-75
2021/08/24 03:35:18;;;;;;;9.38;5.93;;;15.60;99.90;;;;;;4995873;28;20022;-75
2021/08/24 03:37:44;;;;;;;10.32;5.63;;;15.20;99.90;;;;;;5011518;28;20030;-75
2021/08/24 03:40:11;;;;;;;7.65;5.40;;;15.20;99.90;;;;;;4994800;28;20387;-76
2021/08/24 03:42:37;;;;;;;8.27;4.85;;;15.20;99.90;;;;;;4993788;28;20037;-74
2021/08/24 03:45:06;;;;;;;8.82;5.13;;;15.20;99.90;;;;;;4997892;28;20399;-77
2021/08/24 03:47:31;;;;;;;6.70;4.13;;;15.20;99.90;;;;;;4998089;28;20049;-77
2021/08/24 03:49:57;;;;;;;4.78;3.63;;;15.10;99.90;;;;;;4995585;28;20480;-78
2021/08/24 03:52:23;;;;;;;6.20;3.40;;;15.20;99.90;;;;;;5010785;28;20030;-78
2021/08/24 03:54:49;;;;;;;8.20;3.45;;;15.10;99.90;;;;;;4999225;28;20030;-76
2021/08/24 03:57:14;;;;;;;6.05;3.42;;;15.10;99.90;;;;;;5010461;28;20391;-76
2021/08/24 03:59:40;;;;;;;4.75;3.78;;;15.20;99.90;;;;;;5014695;28;20095;-76
2021/08/24 04:02:05;;;;;;;5.47;3.60;;;15.00;99.90;;;;;;5015442;28;20030;-77
2021/08/24 04:04:32;;;;;;;5.40;3.22;;;15.00;99.90;;;;;;5004578;28;20513;-74
2021/08/24 04:06:58;;;;;;;6.78;3.60;;;15.00;99.90;;;;;;5014194;28;20045;-75
2021/08/24 04:09:24;;;;;;;5.20;3.42;;;15.10;99.90;;;;;;5014835;28;20022;-77
2021/08/24 04:11:49;;;;;;;6.28;2.95;;;15.00;99.90;;;;;;4997879;28;20169;-73
2021/08/24 04:14:15;;;;;;;7.05;3.30;;;15.00;99.90;;;;;;5014742;28;20488;-77
2021/08/24 04:16:41;;;;;;;7.32;3.55;;;;;;;;;;5011947;28;20076;-76
2021/08/24 04:19:09;;;;;;;5.60;2.97;;;15.00;99.90;;;;;;4992444;28;20026;-76
2021/08/24 04:21:38;;;;;;;5.45;3.15;;;15.00;99.90;;;;;;4996949;28;20080;-76
2021/08/24 04:24:04;;;;;;;5.20;3.40;;;14.90;99.90;;;;;;4998190;28;20025;-76
2021/08/24 04:26:29;;;;;;;6.47;3.63;;;14.90;99.90;;;;;;5001992;28;20403;-75
2021/08/24 04:28:55;;;;;;;6.22;3.40;;;16.50;99.90;;;;;;5011552;28;20037;-80
2021/08/24 04:31:21;;;;;;;5.43;3.40;;;16.40;99.90;;;;;;5000124;28;20483;-77
2021/08/24 04:33:46;;;;;;;5.40;3.20;;;14.90;99.90;;;;;;5014437;28;20471;-77
2021/08/24 04:36:12;;;;;;;5.65;3.00;;;14.90;99.90;;;;;;5000377;28;20029;-77
2021/08/24 04:38:37;;;;;;;4.18;2.83;;;14.90;99.90;;;;;;5001792;28;20509;-77
2021/08/24 04:41:06;;;;;;;5.40;3.45;;;14.90;99.90;;;;;;4998565;28;20029;-77
2021/08/24 04:43:31;;;;;;;4.70;3.08;;;14.80;99.90;;;;;;5002020;28;20030;-78
2021/08/24 04:45:57;;;;;;;5.55;3.30;;;14.80;99.90;;;;;;5018733;28;20395;-76
2021/08/24 04:48:22;;;;;;;7.70;3.45;;;16.10;99.90;;;;;;5014352;28;20116;-77
2021/08/24 04:50:48;;;;;;;4.97;3.47;;;14.80;99.90;;;;;;5013928;28;20037;-75
2021/08/24 04:53:14;;;;;;;5.57;3.40;;;14.80;99.90;;;;;;4997722;28;20030;-75
2021/08/24 04:55:40;;;;;;;6.07;2.97;;;14.90;99.90;;;;;;5012407;28;20377;-77
2021/08/24 04:58:05;;;;;;;7.80;4.07;;;14.90;99.90;;;;;;4980084;28;20117;-78
2021/08/24 05:00:32;;;;;;;5.38;3.60;;;15.00;99.90;;;;;;5018346;28;20113;-78
2021/08/24 05:02:58;;;;;;;6.68;3.40;;;14.90;99.90;;;;;;4992280;28;20037;-74
2021/08/24 05:05:25;;;;;;;6.18;3.83;;;14.90;99.90;;;;;;4999476;28;20395;-77
2021/08/24 05:07:51;;;;;;;5.93;3.72;;;16.00;99.90;;;;;;5000390;28;20026;-75
2021/08/24 05:10:17;;;;;;;6.90;3.58;;;14.90;99.90;;;;;;4995578;28;20387;-74
2021/08/24 05:12:43;;;;;;;7.47;3.65;;;14.90;99.90;;;;;;5013789;28;20033;-74
2021/08/24 05:15:09;;;;;;;4.57;3.30;;;14.90;99.90;;;;;;4995231;28;20034;-77
2021/08/24 05:17:35;;;;;;;6.47;3.15;;;14.90;99.90;;;;;;5009950;28;20563;-77
2021/08/24 05:20:00;;;;;;;5.97;2.63;;;14.90;99.90;;;;;;5015394;28;20025;-75
2021/08/24 05:22:26;;;;;;;5.15;3.13;;;14.90;99.90;;;;;;5013240;28;20030;-77
2021/08/24 05:24:52;;;;;;;5.53;2.88;;;14.90;99.90;;;;;;5004235;28;20030;-79
2021/08/24 05:27:17;;;;;;;5.68;3.22;;;14.90;99.90;;;;;;4999176;28;20029;-77
2021/08/24 05:29:46;;;;;;;5.35;3.33;;;14.90;99.90;;;;;;4996182;28;20030;-78
2021/08/24 05:32:12;;;;;;;3.70;2.60;;;15.00;99.90;;;;;;5015743;28;20049;-77
2021/08/24 05:34:37;;;;;;;5.15;2.83;;;15.00;99.90;;;;;;5005645;28;20488;-77
2021/08/24 05:37:03;;;;;;;5.15;2.80;;;15.30;99.90;;;;;;4996271;28;20045;-77
2021/08/24 05:39:29;;;;;;;5.82;3.00;;;15.00;99.90;;;;;;5013080;28;20029;-75
2021/08/24 05:41:55;;;;;;;5.18;2.80;;;15.00;99.90;;;;;;4995262;28;20550;-77
2021/08/24 05:44:20;;;;;;;7.97;2.78;;;15.00;99.90;;;;;;5013117;28;20022;-75
2021/08/24 05:46:46;;;;;;;3.67;2.40;;;15.10;99.90;;;;;;5013375;28;20044;-73
2021/08/24 05:49:11;;;;;;;4.78;2.63;;;15.20;99.90;;;;;;4996298;28;20037;-76
2021/08/24 05:51:38;;;;;;;4.18;2.67;;;15.20;99.90;;;;;;5011313;28;20543;-75
2021/08/24 05:54:05;;;;;;;5.22;2.70;;;15.20;99.90;;;;;;5005361;28;20052;-76
2021/08/24 05:56:31;;;;;;;5.00;2.53;;;15.20;99.90;;;;;;4996797;28;20428;-78
2021/08/24 05:58:57;;;;;;;4.93;2.70;;;15.20;99.90;;;;;;5012511;28;20022;-75
2021/08/24 06:01:30;;;;;;;6.22;3.15;;;15.20;99.90;;;;;;5012028;28;20034;-74
2021/08/24 06:03:58;;;;;;;5.00;3.08;;;15.30;99.90;;;;;;5013248;28;20042;-76
2021/08/24 06:06:29;;;;;;;5.90;2.78;;;15.30;99.90;;;;;;4995742;28;20029;-76
2021/08/24 06:08:56;;;;;;;4.20;2.38;;;15.30;99.90;;;;;;5012724;28;20018;-76
2021/08/24 06:11:26;;;;;;;7.32;2.60;;;15.40;99.90;;;;;;5012314;28;20053;-76
2021/08/24 06:13:53;;;;;;;4.57;2.72;;;15.40;99.90;;;;;;5015603;28;20022;-77
2021/08/24 06:16:18;;;;;;;4.38;2.97;;;15.40;99.90;;;;;;4993022;28;20026;-77
2021/08/24 06:18:44;;;;;;;4.75;2.75;;;15.50;99.90;;;;;;4996166;28;20029;-76
2021/08/24 06:21:10;;;;;;;6.47;2.85;;;15.50;99.90;;;;;;5014255;28;20022;-76
2021/08/24 06:23:36;;;;;;;4.10;2.40;;;15.50;99.90;;;;;;5013935;28;20041;-76
2021/08/24 06:26:02;;;;;;;4.25;2.65;;;15.50;99.90;;;;;;4997574;28;20029;-77
2021/08/24 06:28:28;;;;;;;6.07;2.78;;;15.60;99.90;;;;;;5012908;28;20207;-77
2021/08/24 06:30:53;;;;;;;4.38;2.50;;;15.70;99.90;;;;;;4996774;28;20026;-78
2021/08/24 06:33:22;;;;;;;3.90;2.45;;;15.80;99.90;;;;;;5012385;28;20022;-77
2021/08/24 06:35:47;;;;;;;4.78;2.50;;;15.90;99.90;;;;;;5014125;28;20030;-78
2021/08/24 06:38:13;;;;;;;5.50;2.45;;;16.90;99.90;;;;;;4987313;28;20137;-79
2021/08/24 06:40:39;;;;;;;5.38;2.75;;;16.00;99.90;;;;;;5018095;28;20084;-78
2021/08/24 06:43:05;;;;;;;4.80;2.38;;;16.20;99.90;;;;;;5013216;28;20030;-77
2021/08/24 06:45:31;;;;;;;3.67;2.30;;;17.60;99.90;;;;;;5018561;28;20041;-77
2021/08/24 06:47:58;;;;;;;3.78;2.33;;;16.30;99.90;;;;;;4992854;28;20026;-78
2021/08/24 06:50:26;;;;;;;3.95;2.22;;;16.40;99.90;;;;;;5011765;28;20096;-78
2021/08/24 06:52:52;;;;;;;8.15;2.85;;;16.70;99.90;;;;;;4992233;28;20056;-77
2021/08/24 06:55:18;;;;;;;5.30;2.30;;;16.80;99.90;;;;;;5004129;28;20022;-77
2021/08/24 06:57:45;;;;;;;6.22;2.33;;;16.80;99.90;;;;;;5006503;28;20026;-77
2021/08/24 07:00:17;;;;;;;4.35;2.35;;;16.80;99.90;;;;;;4998146;28;20026;-77
2021/08/24 07:02:44;;;;;;;4.45;2.03;;;17.10;99.90;;;;;;5000720;28;20025;-79
2021/08/24 07:05:11;;;;;;;4.00;2.03;;;17.10;99.90;;;;;;5018373;28;20044;-77
2021/08/24 07:07:37;;;;;;;5.50;2.05;;;17.20;99.90;;;;;;5006366;28;20550;-76
2021/08/24 07:10:04;;;;;;;3.88;2.53;;;17.30;99.90;;;;;;5005294;28;20025;-77
2021/08/24 07:12:29;;;;;;;3.67;1.90;;;17.40;99.90;;;;;;5012134;28;20022;-78
2021/08/24 07:14:55;;;;;;;3.42;1.90;;;17.40;99.90;;;;;;4993668;28;20032;-77
2021/08/24 07:17:23;;;;;;;3.72;2.13;;;17.40;99.90;;;;;;4990792;28;20037;-78
2021/08/24 07:19:49;;;;;;;3.05;1.88;;;17.50;99.90;;;;;;5011583;28;20018;-76
2021/08/24 07:22:15;;;;;;;4.80;2.20;;;17.90;99.90;;;;;;4985546;28;20026;-76
2021/08/24 07:24:41;;;;;;;3.55;1.90;;;17.60;99.90;;;;;;4995991;28;20025;-76
2021/08/24 07:27:06;;;;;;;5.65;1.92;;;18.80;99.90;;;;;;5012581;28;20025;-75
2021/08/24 07:29:32;;;;;;;3.63;2.05;;;17.80;99.90;;;;;;4993437;28;20076;-78
2021/08/24 07:31:57;;;;;;;6.30;1.60;;;17.90;98.90;;;;;;4997322;28;20029;-77
2021/08/24 07:34:23;;;;;;;6.18;2.10;;;17.90;98.70;;;;;;5008373;28;20113;-75
2021/08/24 07:36:49;;;;;;;4.57;1.70;;;18.00;98.80;;;;;;5010008;28;20498;-76
2021/08/24 07:39:14;;;;;;;4.72;1.50;;;19.70;98.70;;;;;;5012036;28;20098;-74
2021/08/24 07:41:40;;;;;;;3.65;1.83;;;18.30;97.20;;;;;;4997783;28;20510;-75
2021/08/24 07:44:05;;;;;;;5.53;1.60;;;19.70;97.30;;;;;;4998528;28;20065;-75
2021/08/24 07:46:31;;;;;;;3.70;1.70;;;18.30;96.50;;;;;;5012701;28;20030;-76
2021/08/24 07:48:57;;;;;;;4.80;1.92;;;18.30;96.60;;;;;;4992743;28;20026;-75
2021/08/24 07:51:22;;;;;;;5.43;1.50;;;18.40;94.90;;;;;;4986536;28;20399;-76
2021/08/24 07:53:49;;;;;;;3.53;1.52;;;18.30;95.40;;;;;;5011299;28;20040;-77
2021/08/24 07:56:15;;;;;;;3.60;1.50;;;18.40;95.70;;;;;;5003060;28;20095;-77
2021/08/24 07:58:40;;;;;;;3.35;1.50;;;18.40;94.90;;;;;;4993072;28;20487;-76
2021/08/24 08:01:06;;;;;;;3.33;1.42;;;18.60;95.30;;;;;;4994728;28;20022;-76
2021/08/24 08:03:32;;;;;;;3.10;1.35;;;18.60;95.50;;;;;;5005555;28;20075;-75
2021/08/24 08:05:58;;;;;;;2.78;1.27;;;18.70;95.20;;;;;;5011377;28;20065;-76
2021/08/24 08:08:24;;;;;;;3.60;1.60;;;18.80;95.30;;;;;;4989315;28;20030;-75
2021/08/24 08:10:49;;;;;;;3.95;1.50;;;18.80;95.20;;;;;;5013901;28;20426;-77
2021/08/24 08:13:15;;;;;;;3.38;1.73;;;19.00;94.70;;;;;;5006757;28;20079;-77
2021/08/24 08:15:41;;;;;;;3.75;1.33;;;;;;;;;;5008742;28;20025;-75
2021/08/24 08:18:08;;;;;;;5.50;1.35;;;19.10;93.20;;;;;;5008475;28;20534;-76
2021/08/24 08:20:36;;;;;;;4.35;1.25;;;19.10;93.50;;;;;;5006402;28;20403;-77
2021/08/24 08:23:05;;;;;;;2.28;1.40;;;20.40;94.10;;;;;;4994294;28;20041;-74
2021/08/24 08:25:31;;;;;;;4.88;1.70;;;19.10;93.90;;;;;;4989436;28;20478;-77
2021/08/24 08:27:57;;;;;;;2.47;1.40;;;19.20;93.20;;;;;;5008479;28;20021;-75
2021/08/24 08:30:23;;;;;;;10.65;2.17;;;19.30;93.30;;;;;;4991643;28;20403;-78
2021/08/24 08:32:48;;;;;;;5.32;1.88;;;19.40;93.40;;;;;;4996580;28;20029;-78
2021/08/24 08:35:17;;;;;;;2.80;1.38;;;19.50;92.90;;;;;;4992212;28;20014;-78
2021/08/24 08:37:43;;;;;;;3.72;1.67;;;19.60;92.20;;;;;;5003889;28;20481;-75
2021/08/24 08:40:11;;;;;;;3.53;1.73;;;19.60;91.90;;;;;;5009759;28;20540;-77
2021/08/24 08:42:52;;;;;;;12.30;1.63;;;19.70;91.90;;;;;;4990136;28;20120;-77
2021/08/24 08:45:29;;;;;;;2.80;1.58;;;19.80;91.50;;;;;;5007026;28;20044;-78
2021/08/24 08:48:16;;;;;;;3.33;1.63;;;19.80;91.80;;;;;;5007208;28;20034;-77
2021/08/24 08:50:56;;;;;;;6.30;1.77;;;19.90;91.10;;;;;;5013857;28;20036;-77
2021/08/24 08:53:42;;;;;;;;;;;19.90;90.50;;;;;;4989390;28;20030;-77
2021/08/24 08:56:26;;;;;;;3.00;1.58;;;19.90;89.70;;;;;;4992439;28;19917;-77
2021/08/24 08:59:03;;;;;;;7.38;2.20;;;19.90;90.00;;;;;;5009968;28;20033;-76
2021/08/24 09:01:58;;;;;;;10.10;1.90;;;20.00;89.50;;;;;;5009952;28;20018;-77
2021/08/24 09:04:37;;;;;;;16.20;3.15;;;20.00;88.70;;;;;;5011003;28;20117;-77
2021/08/24 09:07:09;;;;;;;3.00;1.33;;;20.10;87.80;;;;;;5011059;28;20013;-77
2021/08/24 09:09:38;;;;;;;7.60;1.90;;;20.20;87.20;;;;;;5012431;28;20026;-76
2021/08/24 09:12:07;;;;;;;15.77;2.75;;;20.20;87.00;;;;;;4999368;28;20054;-75
2021/08/24 09:14:38;;;;;;;6.57;1.70;;;20.10;86.90;;;;;;5014664;28;20034;-76
2021/08/24 09:17:35;;;;;;;3.47;1.30;;;20.20;86.20;;;;;;5013975;28;20384;-77
2021/08/24 09:20:34;;;;;;;3.13;1.42;;;20.40;85.60;;;;;;4974273;28;20435;-76
2021/08/24 09:23:02;;;;;;;9.32;2.00;;;20.40;82.40;;;;;;5005840;28;20117;-77
2021/08/24 09:25:59;;;;;;;12.40;2.30;;;20.50;81.90;;;;;;4996933;28;20427;-76
2021/08/24 09:28:27;;;;;;;6.15;1.73;;;20.50;81.00;;;;;;4996322;28;20506;-76
2021/08/24 09:30:53;;;;;;;8.48;1.80;;;20.70;80.60;;;;;;5015097;28;20376;-77
2021/08/24 09:33:20;;;;;;;9.57;1.92;;;20.70;79.60;;;;;;5010665;28;20054;-77
2021/08/24 09:35:49;;;;;;;7.03;1.88;;;20.80;80.40;;;;;;5017047;28;20040;-78
2021/08/24 09:38:14;;;;;;;6.57;1.80;;;20.90;79.80;;;;;;5020465;28;20026;-78
2021/08/24 09:40:45;;;;;;;17.83;2.40;;;21.00;79.00;;;;;;4998183;28;20376;-77
2021/08/24 09:43:21;;;;;;;3.95;1.55;;;20.70;79.60;;;;;;5000244;28;20057;-77
2021/08/24 09:45:58;;;;;;;4.55;1.52;;;21.10;79.00;;;;;;5005277;28;20026;-78
2021/08/24 09:48:25;;;;;;;3.75;1.25;;;21.10;77.90;;;;;;5000006;28;20041;-75
2021/08/24 09:50:52;;;;;;;4.25;1.50;;;21.10;78.30;;;;;;5014574;28;20101;-77
2021/08/24 09:53:35;;;;;;;3.55;1.42;;;21.40;78.40;;;;;;4996299;28;20026;-80
2021/08/24 09:56:06;;;;;;;2.88;1.55;;;21.10;76.10;;;;;;5016606;28;20022;-75
2021/08/24 09:58:46;;;;;;;2.85;1.30;;;21.20;76.70;;;;;;5016356;28;20068;-77
2021/08/24 10:01:14;;;;;;;4.88;1.67;;;21.30;75.60;;;;;;4991641;28;20053;-79
2021/08/24 10:03:42;;;;;;;4.53;1.40;;;21.40;76.50;;;;;;5018297;28;20030;-80
2021/08/24 10:06:29;;;;;;;3.13;1.42;;;21.40;74.70;;;;;;5000492;28;20484;-79
2021/08/24 10:09:15;;;;;;;3.95;1.58;;;21.40;75.20;;;;;;5008728;28;20026;-82
2021/08/24 10:11:41;;;;;;;4.32;1.85;;;21.60;75.70;;;;;;4985732;28;20038;-87
2021/08/24 10:14:21;;;;;;;3.33;1.20;;;21.50;73.50;;;;;;5004032;28;20502;-78
2021/08/24 10:16:51;;;;;;;2.78;1.30;;;21.50;73.50;;;;;;4994181;28;20153;-79
2021/08/24 10:19:27;;;;;;;3.15;1.50;;;21.50;72.80;;;;;;5003724;28;20091;-77
2021/08/24 10:22:17;;;;;;;2.83;1.40;;;21.70;72.10;;;;;;5015641;28;20045;-80
2021/08/24 10:24:59;;;;;;;3.08;1.40;;;21.60;72.30;;;;;;5002628;28;20491;-83
2021/08/24 10:27:35;;;;;;;3.47;1.40;;;21.50;73.60;;;;;;5002979;28;20509;-84
2021/08/24 10:30:09;;;;;;;2.85;1.20;;;21.60;73.20;;;;;;5002968;28;20018;-82
2021/08/24 10:32:44;;;;;;;3.33;1.45;;;21.80;72.30;;;;;;4992955;28;20088;-81
2021/08/24 10:35:24;;;;;;;3.42;1.30;;;21.90;71.50;;;;;;5003068;28;20114;-80
2021/08/24 10:37:49;;;;;;;;;;;21.90;70.80;;;;;;5002670;28;20388;-81
2021/08/24 10:40:20;;;;;;;3.20;1.38;;;22.20;72.10;;;;;;5007105;28;20000;-82
2021/08/24 10:43:09;;;;;;;4.95;1.63;;;22.00;70.70;;;;;;5003794;28;20476;-80
2021/08/24 10:45:38;;;;;;;4.88;1.50;;;22.10;71.90;;;;;;4996503;28;20026;-80
2021/08/24 10:48:18;;;;;;;3.67;1.33;;;22.10;69.80;;;;;;5015899;28;20034;-84
2021/08/24 10:50:56;;;;;;;3.83;1.70;;;22.00;69.70;;;;;;5023090;28;20041;-80
2021/08/24 10:54:00;;;;;;;4.35;1.58;;;21.90;71.10;;;;;;5009189;28;20034;-80
2021/08/24 10:56:38;;;;;;;3.85;1.50;;;22.00;70.10;;;;;;4993391;28;20022;-80
2021/08/24 10:59:43;;;;;;;2.05;1.25;;;20.40;69.60;;;;;;4982853;28;20109;-82
2021/08/24 11:02:25;;;;;;;4.30;1.20;;;22.20;70.00;;;;;;5001385;28;20515;-80
2021/08/24 11:05:05;;;;;;;3.28;1.42;;;22.30;68.60;;;;;;5002300;28;20034;-79
2021/08/24 11:07:49;;;;;;;3.88;1.40;;;22.50;68.30;;;;;;4998550;28;20083;-82
2021/08/24 11:10:42;;;;;;;2.55;1.33;;;22.50;68.30;;;;;;5010728;28;20022;-82
2021/08/24 11:13:17;;;;;;;4.15;1.40;;;22.60;69.00;;;;;;5007846;28;20114;-79
2021/08/24 11:16:07;;;;;;;3.67;1.33;;;22.60;70.30;;;;;;5014419;28;20022;-79
2021/08/24 11:18:44;;;;;;;3.13;1.55;;;22.60;69.90;;;;;;5001193;28;20022;-79
2021/08/24 11:21:37;;;;;;;2.95;1.50;;;22.60;68.90;;;;;;4997422;28;20022;-84
2021/08/24 11:24:30;;;;;;;7.00;2.90;;;21.80;68.90;;;;;;4999194;28;20511;-80
2021/08/24 11:27:34;;;;;;;2.35;1.30;;;22.60;68.90;;;;;;5009151;28;20021;-80
2021/08/24 11:30:11;;;;;;;12.23;3.30;;;22.60;69.30;;;;;;5005113;28;20510;-79
2021/08/24 11:32:41;;;;;;;13.13;2.30;;;22.70;69.50;;;;;;5016451;28;20483;-81
2021/08/24 11:35:27;;;;;;;20.08;2.33;;;22.70;69.90;;;;;;5001951;28;20024;-79
2021/08/24 11:37:58;;;;;;;4.45;1.60;;;23.00;69.10;;;;;;5018783;28;20053;-82
2021/08/24 11:40:28;;;;;;;4.07;1.73;;;23.00;68.80;;;;;;5001295;28;20022;-80
2021/08/24 11:42:59;;;;;;;4.07;1.48;;;23.00;69.30;;;;;;5002655;28;20022;-82
2021/08/24 11:45:49;;;;;;;3.00;1.40;;;22.70;69.50;;;;;;4995572;28;20048;-82
2021/08/24 11:48:24;;;;;;;3.38;1.58;;;22.90;69.30;;;;;;4998600;28;20034;-82
2021/08/24 11:50:54;;;;;;;3.10;1.60;;;22.90;69.00;;;;;;5006153;28;20030;-82
2021/08/24 11:54:09;;;;;;;4.13;1.77;;;22.90;68.70;;;;;;4999110;28;20026;-83
2021/08/24 11:56:48;;;;;;;3.17;1.40;;;23.10;68.00;;;;;;4981838;28;20041;-80
2021/08/24 11:59:40;;;;;;;3.53;1.55;;;23.20;68.60;;;;;;4988716;28;20022;-78
2021/08/24 12:02:17;;;;;;;5.43;1.58;;;23.40;69.10;;;;;;4995881;28;20057;-81
2021/08/24 12:04:45;;;;;;;3.53;1.60;;;23.30;68.00;;;;;;5016983;28;20033;-82
2021/08/24 12:07:33;;;;;;;8.23;1.63;;;23.60;67.00;;;;;;5001345;28;20040;-80
2021/08/24 12:10:03;;;;;;;10.45;2.55;;;23.60;66.70;;;;;;5011172;28;20037;-79
2021/08/24 12:12:43;;;;;;;5.18;2.00;;;23.60;67.00;;;;;;5002080;28;20072;-82
2021/08/24 12:15:30;;;;;;;4.60;1.80;;;23.80;67.60;;;;;;5016758;28;20427;-80
2021/08/24 12:18:25;;;;;;;4.03;1.77;;;23.80;66.50;;;;;;5006640;28;20109;-83
2021/08/24 12:21:18;;;;;;;3.95;1.40;;;23.80;66.20;;;;;;5022130;28;20046;-81
2021/08/24 12:23:44;;;;;;;9.80;3.20;;;23.80;66.80;;;;;;5020519;28;20030;-80
2021/08/24 12:26:32;;;;;;;12.55;2.83;;;23.50;66.90;;;;;;5005144;28;20399;-83
2021/08/24 12:29:10;;;;;;;6.55;1.80;;;23.50;67.70;;;;;;5001292;28;20052;-83
2021/08/24 12:31:40;;;;;;;5.78;1.90;;;23.60;68.20;;;;;;5003728;28;20041;-82
2021/08/24 12:34:30;;;;;;;3.13;1.55;;;23.60;67.50;;;;;;4991234;28;20029;-82
2021/08/24 12:36:57;;;;;;;2.78;1.60;;;23.70;67.40;;;;;;5004808;28;20381;-83
2021/08/24 12:39:41;;;;;;;4.88;1.50;;;23.80;66.60;;;;;;5004228;28;20022;-80
2021/08/24 12:42:24;;;;;;;4.28;1.63;;;23.70;67.60;;;;;;5002773;28;20034;-81
2021/08/24 12:45:02;;;;;;;5.80;2.10;;;23.80;68.20;;;;;;5003576;28;20029;-84
2021/08/24 12:47:40;;;;;;;3.17;1.48;;;23.90;68.10;;;;;;5017234;28;20038;-84
2021/08/24 12:50:09;;;;;;;5.95;2.08;;;23.90;68.70;;;;;;4993100;28;20397;-84
2021/08/24 12:52:43;;;;;;;3.75;1.63;;;23.90;69.30;;;;;;5018563;28;20118;-82
2021/08/24 12:55:34;;;;;;;3.72;1.70;;;23.80;68.20;;;;;;4993444;28;20080;-82
2021/08/24 12:58:22;;;;;;;3.42;1.70;;;23.60;68.70;;;;;;5002618;28;20021;-81
2021/08/24 13:01:25;;;;;;;4.97;1.80;;;23.60;69.20;;;;;;5002091;28;20032;-82
2021/08/24 13:04:12;;;;;;;3.92;1.70;;;23.70;69.80;;;;;;5002263;28;20057;-81
2021/08/24 13:06:41;;;;;;;3.53;1.75;;;23.80;70.00;;;;;;5001462;28;20026;-81
2021/08/24 13:09:19;;;;;;;4.40;1.67;;;23.70;70.80;;;;;;5002584;28;20028;-82
2021/08/24 13:12:07;;;;;;;3.95;2.10;;;23.70;70.80;;;;;;5002223;28;20113;-83
2021/08/24 13:14:44;;;;;;;3.90;1.80;;;23.80;70.60;;;;;;4998439;28;20022;-80